Panorama City, California
Current Conditions -  °F | °C
As of 1:51 PM on Saturday 25 Oct 2014 (Local Time) from KVNY Reporting Station
Few Clouds Few Clouds  
Wind Chill: 83°   Ceiling: Unl
Heat Index: 83°   Visibility: 10mi
Dew Point: 39°   Wind: 7mph
Humidity: 21%   Direction: NA
Pressure: 30.02"   Gusts: NA
Location:  34.22°N, 118.45°W
Report Text: KVNY 252051Z VRB06KT 10SM FEW090 28/04 A3002 RMK AO2 SLP156 T02830039 58014
Loading
Personal Weather Stations






























Interactive Weather Map
Tropical Storm Tracking
New forecast layout! Learn more

10-Day Weather Forecast

Advertisements
Track Severe Weather on mobile